Time;durP1;ratioP1;P1;durP2;ratioP2;P2;SDS_P1;SDS_P2;PMS_P1;PMS_P2;Temp;Humidity;BMP_temperature;BMP_pressure;BME280_temperature;BME280_humidity;BME280_pressure;Samples;Min_cycle;Max_cycle;Signal;HPM_P1;HPM_P2
2022/05/24 00:01:49;;;;;;;6.67;4.20;;;;;;;16.27;100.00;62541.53;5073736;28;20659;-74
2022/05/24 00:04:17;;;;;;;6.30;3.43;;;;;;;16.21;100.00;62535.06;5073576;28;20197;-73
2022/05/24 00:06:44;;;;;;;5.03;3.53;;;;;;;16.08;100.00;62522.16;5073720;28;20196;-72
2022/05/24 00:09:13;;;;;;;6.23;3.27;;;;;;;16.03;100.00;62516.78;5072997;28;20556;-74
2022/05/24 00:11:40;;;;;;;7.80;3.07;;;;;;;15.84;100.00;62491.16;5073387;28;20659;-74
2022/05/24 00:14:07;;;;;;;4.73;3.00;;;;;;;15.98;100.00;62511.38;5073450;28;20205;-73
2022/05/24 00:16:35;;;;;;;5.23;3.00;;;;;;;15.91;100.00;62501.28;5073499;28;20281;-73
2022/05/24 00:19:02;;;;;;;12.33;3.40;;;;;;;15.77;100.00;62486.22;5090786;28;20200;-73
2022/05/24 00:21:29;;;;;;;10.40;4.87;;;;;;;15.79;100.00;62485.78;5092143;28;20656;-72
2022/05/24 00:23:56;;;;;;;9.77;4.73;;;;;;;14.51;100.00;62353.16;5093198;28;20196;-74
2022/05/24 00:26:32;;;;;;;7.63;4.73;;;;;;;15.58;100.00;62470.88;5093448;28;20229;-75
2022/05/24 00:28:59;;;;;;;10.13;7.47;;;;;;;15.53;100.00;62462.94;5093402;28;20256;-75
2022/05/24 00:31:26;;;;;;;12.97;7.23;;;;;;;15.50;100.00;62454.56;5093268;28;20235;-73
2022/05/24 00:33:54;;;;;;;17.93;8.40;;;;;;;15.56;100.00;62461.03;5093161;28;20215;-72
2022/05/24 00:36:22;;;;;;;19.73;10.20;;;;;;;15.19;100.00;62426.31;5093038;28;20199;-75
2022/05/24 00:38:49;;;;;;;21.93;10.20;;;;;;;14.78;100.00;62382.72;5092995;28;20211;-72
2022/05/24 00:41:24;;;;;;;27.20;9.90;;;;;;;15.68;100.00;62476.50;5093460;28;20231;-72
2022/05/24 00:43:56;;;;;;;21.50;8.13;;;;;;;15.73;100.00;62481.91;5093303;28;20195;-72
2022/05/24 00:46:26;;;;;;;13.33;7.17;;;;;;;15.54;100.00;62461.44;5093031;28;20636;-73
2022/05/24 00:48:58;;;;;;;13.67;6.53;;;;;;;15.52;100.00;62459.28;5092816;28;20647;-73
2022/05/24 00:51:29;;;;;;;10.90;5.93;;;;;;;15.71;100.00;62479.75;5092451;28;20296;-73
2022/05/24 00:53:56;;;;;;;12.07;5.67;;;;;;;15.77;100.00;62488.22;5092963;28;20230;-75
2022/05/24 00:56:41;;;;;;;14.17;5.70;;;;;;;15.82;100.00;62496.72;5092928;28;20200;-74
2022/05/24 00:59:14;;;;;;;13.30;5.47;;;;;;;16.05;100.00;62521.50;5092817;28;20722;-71
2022/05/24 01:01:43;;;;;;;7.33;3.97;;;;;;;16.12;100.00;62522.81;5093272;28;20207;-72
2022/05/24 01:04:14;;;;;;;5.17;3.70;;;;;;;16.02;100.00;62515.69;5092804;28;20290;-73
2022/05/24 01:06:42;;;;;;;6.50;3.97;;;;;;;16.12;100.00;62525.41;5092637;28;20252;-72
2022/05/24 01:09:14;;;;;;;13.33;3.90;;;;;;;16.20;100.00;62531.44;5092501;28;20195;-73
2022/05/24 01:11:46;;;;;;;7.70;3.90;;;;;;;16.23;100.00;62534.66;5092552;28;20256;-74
2022/05/24 01:14:18;;;;;;;5.30;4.00;;;;;;;16.38;100.00;62550.81;5092561;28;20253;-73
2022/05/24 01:16:45;;;;;;;8.43;4.70;;;;;;;16.28;100.00;62542.63;5092769;28;20196;-75
2022/05/24 01:19:23;;;;;;;6.03;4.60;;;;;;;16.15;100.00;62534.28;5092482;28;20666;-73
2022/05/24 01:21:50;;;;;;;6.57;4.33;;;;;;;16.53;100.00;62567.53;5092333;28;20200;-72
2022/05/24 01:24:27;;;;;;;6.40;3.93;;;;;;;16.50;100.00;62563.78;5092259;28;20221;-75
2022/05/24 01:26:57;;;;;;;6.33;3.80;;;;;;;16.54;100.00;62570.66;5092579;28;20187;-74
2022/05/24 01:29:27;;;;;;;6.80;3.60;;;;;;;16.64;100.00;62584.00;5092272;28;20199;-72
2022/05/24 01:37:27;;;;;;;7.80;3.20;;;;;;;16.25;100.00;62542.50;5088428;28;20211;-74
2022/05/24 01:39:57;;;;;;;8.03;3.47;;;;;;;16.41;100.00;62554.59;5088791;28;20219;-73
2022/05/24 01:42:26;;;;;;;5.20;3.47;;;;;;;16.46;100.00;62559.44;5091947;28;20223;-72
2022/05/24 01:44:59;;;;;;;6.80;3.90;;;;;;;16.24;100.00;62535.75;5092012;28;20200;-71
2022/05/24 01:47:28;;;;;;;4.63;3.57;;;;;;;16.46;100.00;62559.44;5091769;28;20200;-73
2022/05/24 01:49:59;;;;;;;9.83;4.20;;;;;;;16.47;100.00;62565.66;5091835;28;20223;-73
2022/05/24 01:52:31;;;;;;;5.40;3.63;;;;;;;16.38;100.00;62551.34;5091445;28;20261;-75
2022/05/24 01:55:06;;;;;;;7.47;3.73;;;;;;;16.21;100.00;62535.63;5091642;28;20203;-74
2022/05/24 01:57:39;;;;;;;5.67;3.80;;;;;;;16.19;100.00;62530.34;5092558;28;20210;-75
2022/05/24 02:00:09;;;;;;;5.13;3.80;;;;;;;16.22;100.00;62533.59;5073748;28;20552;-73
2022/05/24 02:02:36;;;;;;;6.97;3.80;;;;;;;15.40;100.00;62448.91;5091863;28;20196;-73
2022/05/24 02:05:05;;;;;;;6.10;3.80;;;;;;;15.75;100.00;62489.19;5092672;28;20686;-75
2022/05/24 02:07:33;;;;;;;5.77;3.80;;;;;;;16.00;100.00;62516.09;5093143;28;20744;-73
2022/05/24 02:10:00;;;;;;;5.57;3.80;;;;;;;16.14;100.00;62524.97;5090536;28;20257;-73
2022/05/24 02:12:34;;;;;;;8.00;4.03;;;;;;;16.17;100.00;62525.63;5092066;28;20200;-74
2022/05/24 02:15:07;;;;;;;5.93;4.10;;;;;;;15.99;100.00;62509.91;5091588;28;20233;-73
2022/05/24 02:17:42;;;;;;;7.50;4.03;;;;;;;15.93;100.00;62508.03;5091742;28;20631;-73
2022/05/24 02:20:12;;;;;;;6.10;3.90;;;;;;;15.79;100.00;62488.34;5091877;28;20199;-72
2022/05/24 02:22:43;;;;;;;9.33;4.00;;;;;;;15.90;100.00;62505.34;5091626;28;20575;-75
2022/05/24 02:25:16;;;;;;;8.17;4.00;;;;;;;16.19;100.00;62532.91;5091568;28;20237;-72
2022/05/24 02:27:46;;;;;;;7.43;3.60;;;;;;;16.08;100.00;62518.50;5091600;28;20734;-72
2022/05/24 02:30:17;;;;;;;10.17;4.03;;;;;;;15.95;100.00;62508.16;5091421;28;20227;-72
2022/05/24 02:32:44;;;;;;;6.37;3.43;;;;;;;15.47;100.00;62450.78;5091607;28;20200;-74
2022/05/24 02:35:11;;;;;;;7.40;3.73;;;;;;;15.04;100.00;62412.72;5091592;28;20215;-73
2022/05/24 02:37:39;;;;;;;7.80;4.23;;;;;;;15.83;100.00;62492.66;5091379;28;20584;-72
2022/05/24 02:42:51;;;;;;;5.47;3.87;;;;;;;15.76;100.00;62485.13;5091684;28;20740;-73
2022/05/24 02:45:20;;;;;;;5.93;3.87;;;;;;;15.77;100.00;62491.34;5073851;28;20569;-74
2022/05/24 02:47:47;;;;;;;9.07;3.73;;;;;;;15.69;100.00;62479.63;5095504;28;20206;-72
2022/05/24 02:50:14;;;;;;;5.43;4.03;;;;;;;15.41;100.00;62450.00;5095452;28;20223;-74
2022/05/24 02:52:41;;;;;;;7.10;3.67;;;;;;;15.68;100.00;62481.63;5095503;28;20278;-74
2022/05/24 02:55:10;;;;;;;8.23;3.93;;;;;;;15.66;100.00;62473.81;5095288;28;20196;-72
2022/05/24 02:57:39;;;;;;;7.10;3.57;;;;;;;15.78;100.00;62487.28;5095231;28;20199;-73
2022/05/24 03:00:10;;;;;;;5.20;4.10;;;;;;;15.63;100.00;62476.28;5095062;28;20275;-72
2022/05/24 03:02:40;;;;;;;9.07;3.90;;;;;;;15.65;100.00;62478.41;5095467;28;20203;-71
2022/05/24 03:05:10;;;;;;;7.47;3.50;;;;;;;15.67;100.00;62475.44;5095374;28;20257;-73
2022/05/24 03:10:21;;;;;;;4.70;3.70;;;;;;;15.78;100.00;62492.41;5095395;28;20223;-76
2022/05/24 03:15:40;;;;;;;8.23;4.23;;;;;;;15.78;100.00;62492.41;5095254;28;20222;-74
2022/05/24 03:18:11;;;;;;;6.30;3.90;;;;;;;15.68;100.00;62473.94;5094492;28;20206;-73
2022/05/24 03:20:38;;;;;;;4.67;3.90;;;;;;;15.64;100.00;62472.19;5094912;28;20203;-72
2022/05/24 03:23:05;;;;;;;7.30;4.10;;;;;;;15.76;100.00;62482.00;5094919;28;20204;-75
2022/05/24 03:25:32;;;;;;;9.07;4.50;;;;;;;15.60;100.00;62467.91;5094378;28;20666;-74
2022/05/24 03:28:00;;;;;;;6.93;3.90;;;;;;;15.79;100.00;62488.34;5094530;28;20256;-72
2022/05/24 03:30:27;;;;;;;7.33;3.83;;;;;;;15.76;100.00;62487.16;5094455;28;20219;-73
2022/05/24 03:32:57;;;;;;;4.60;3.83;;;;;;;15.91;100.00;62500.75;5094215;28;20222;-73
2022/05/24 03:35:26;;;;;;;7.50;3.10;;;;;;;15.54;100.00;62460.88;5094325;28;20216;-73
2022/05/24 03:37:53;;;;;;;7.43;4.07;;;;;;;15.94;100.00;62504.50;5094536;28;20265;-71
2022/05/24 03:40:20;;;;;;;10.33;4.00;;;;;;;15.84;100.00;62493.19;5094296;28;20260;-75
2022/05/24 03:42:51;;;;;;;8.17;3.77;;;;;;;15.98;100.00;62513.94;5094157;28;20654;-76
2022/05/24 03:45:19;;;;;;;9.83;3.93;;;;;;;16.20;100.00;62537.09;5094560;28;20681;-74
2022/05/24 03:47:46;;;;;;;9.23;4.00;;;;;;;15.95;100.00;62510.19;5094072;28;20283;-72
2022/05/24 03:50:14;;;;;;;7.17;4.10;;;;;;;15.77;100.00;62488.78;5094190;28;20235;-73
2022/05/24 03:52:43;;;;;;;7.37;3.67;;;;;;;15.88;100.00;62500.06;5094029;28;20576;-74
2022/05/24 03:55:10;;;;;;;9.23;4.23;;;;;;;15.94;100.00;62503.97;5093430;28;20195;-75
2022/05/24 04:00:21;;;;;;;5.87;3.87;;;;;;;16.06;100.00;62517.44;5072707;28;20196;-73
2022/05/24 04:02:47;;;;;;;7.87;3.97;;;;;;;15.87;100.00;62491.84;5095592;28;20619;-72
2022/05/24 04:05:14;;;;;;;6.43;4.07;;;;;;;15.94;100.00;62504.50;5098349;28;20244;-74
2022/05/24 04:07:43;;;;;;;7.17;4.10;;;;;;;15.95;100.00;62510.19;5093898;28;20204;-74
2022/05/24 04:10:16;;;;;;;8.93;4.33;;;;;;;16.05;100.00;62521.50;5093345;28;20662;-77
2022/05/24 04:12:43;;;;;;;7.67;4.33;;;;;;;16.08;100.00;62523.66;5093721;28;20268;-73
2022/05/24 04:15:12;;;;;;;4.67;3.87;;;;;;;16.04;100.00;62515.28;5094186;28;20196;-74
2022/05/24 04:17:39;;;;;;;9.40;4.43;;;;;;;16.00;100.00;62516.09;5093588;28;20200;-73
2022/05/24 04:20:07;;;;;;;5.07;4.00;;;;;;;16.15;100.00;62528.63;5093428;28;20670;-74
2022/05/24 04:22:34;;;;;;;6.77;3.93;;;;;;;16.27;100.00;62542.09;5093563;28;20196;-73
2022/05/24 04:25:05;;;;;;;7.40;3.90;;;;;;;15.12;100.00;62418.78;5093513;28;20199;-72
2022/05/24 04:27:33;;;;;;;4.83;3.80;;;;;;;16.47;100.00;62563.09;5093515;28;20264;-73
2022/05/24 04:30:01;;;;;;;11.20;4.37;;;;;;;16.51;100.00;62567.41;5093858;28;20265;-72
2022/05/24 04:32:30;;;;;;;7.83;4.30;;;;;;;16.45;100.00;62558.38;5094078;28;20280;-74
2022/05/24 04:34:58;;;;;;;11.47;4.40;;;;;;;15.77;100.00;62491.34;5075016;28;20613;-73
2022/05/24 04:37:27;;;;;;;10.40;4.37;;;;;;;16.71;100.00;62586.41;5093506;28;20628;-74
2022/05/24 04:39:54;;;;;;;10.27;3.80;;;;;;;16.88;100.00;62605.25;5093737;28;20196;-74
2022/05/24 04:42:24;;;;;;;7.10;3.80;;;;;;;16.86;100.00;62607.72;5093383;28;20227;-73
2022/05/24 04:44:55;;;;;;;6.07;3.87;;;;;;;16.84;100.00;62600.41;5093937;28;20628;-72
2022/05/24 04:47:25;;;;;;;17.40;5.13;;;;;;;16.99;100.00;62619.16;5092794;28;20203;-74
2022/05/24 04:49:55;;;;;;;7.97;4.07;;;;;;;17.07;100.00;62624.66;5093067;28;20253;-73
2022/05/24 04:52:25;;;;;;;7.43;3.67;;;;;;;17.27;100.00;62644.19;5091631;28;20231;-76
2022/05/24 04:54:53;;;;;;;7.50;3.87;;;;;;;16.80;100.00;62596.09;5092923;28;20231;-72
2022/05/24 04:57:23;;;;;;;6.07;4.03;;;;;;;17.09;100.00;62626.81;5093489;28;20203;-72
2022/05/24 04:59:51;;;;;;;11.60;4.00;;;;;;;17.51;100.00;62675.25;5093235;28;20199;-76
2022/05/24 05:02:18;;;;;;;7.90;4.03;;;;;;;17.59;100.00;62681.28;5092805;28;20256;-74
2022/05/24 05:04:45;;;;;;;8.40;3.97;;;;;;;17.89;100.00;62715.16;5092635;28;20213;-73
2022/05/24 05:07:12;;;;;;;4.27;3.73;;;;;;;18.16;100.00;62742.25;5093061;28;20208;-74
2022/05/24 05:09:40;;;;;;;9.83;3.97;;;;;;;18.23;100.00;62747.22;5092596;28;20697;-72
2022/05/24 05:12:09;;;;;;;5.73;3.77;;;;;;;18.50;100.00;62778.44;5092621;28;20285;-73
2022/05/24 05:14:39;;;;;;;9.47;3.90;;;;;;;18.62;100.00;62790.84;5092505;28;20261;-73
2022/05/24 05:17:08;;;;;;;6.70;3.50;;;;;;;18.86;100.00;62816.75;5092339;28;20686;-76
2022/05/24 05:19:35;;;;;;;8.23;3.80;;;;;;;18.81;100.00;62811.91;5092944;28;20314;-72
2022/05/24 05:22:02;;;;;;;10.03;3.40;;;;;;;19.09;100.00;62844.72;5092437;28;20195;-75
2022/05/24 05:24:30;;;;;;;7.97;3.57;;;;;;;19.35;100.00;62869.72;5092617;28;20295;-74
2022/05/24 05:26:58;;;;;;;12.63;3.60;;;;;;;19.31;100.00;62862.78;5092341;28;20208;-72
2022/05/24 05:32:19;;;;;;;12.97;3.70;;;;;;;19.11;100.00;62846.91;5092310;28;20775;-74
2022/05/24 05:34:47;;;;;;;5.30;3.50;;;;;;;18.93;100.00;62824.88;5092280;28;20693;-74
2022/05/24 05:37:14;;;;;;;6.73;3.63;;;;;;;18.89;100.00;62823.13;5091593;28;20213;-72
2022/05/24 05:39:41;;;;;;;8.83;3.80;;;;;;;18.78;100.00;62808.13;5092186;28;20203;-74
2022/05/24 05:42:10;;;;;;;7.90;3.80;;;;;;;19.02;100.00;62837.16;5091884;28;20312;-74
2022/05/24 05:44:37;;;;;;;7.47;3.50;;;;;;;19.02;100.00;62834.59;5092512;28;20594;-73
2022/05/24 05:47:05;;;;;;;10.17;3.17;;;;;;;18.56;100.00;62790.06;5093122;28;20207;-74
2022/05/24 05:49:35;;;;;;;10.80;3.53;;;;;;;19.27;100.00;62861.59;5092207;28;20206;-75
2022/05/24 05:52:02;;;;;;;9.87;3.63;;;;;;;19.44;100.00;62882.00;5091962;28;20276;-72
2022/05/24 05:54:30;;;;;;;8.53;3.50;;;;;;;19.74;100.00;62911.31;5092046;28;20735;-74
2022/05/24 05:56:57;;;;;;;8.43;3.40;;;;;;;19.52;100.00;62892.72;5092008;28;20208;-73
2022/05/24 05:59:25;;;;;;;7.80;3.23;;;;;;;20.20;100.00;62961.59;5092242;28;20203;-75
2022/05/24 06:01:52;;;;;;;6.47;3.37;;;;;;;20.48;100.00;62991.34;5091868;28;20192;-73
2022/05/24 06:04:25;;;;;;;9.33;3.57;;;;;;;20.55;100.00;62998.91;5092159;28;20207;-72
2022/05/24 06:06:53;;;;;;;5.40;3.10;;;;;;;20.08;100.00;62953.25;5098914;28;20216;-76
2022/05/24 06:09:21;;;;;;;6.03;3.50;;;;;;;20.77;100.00;63027.88;5074254;28;20670;-72
2022/05/24 06:11:50;;;;;;;7.47;3.67;;;;;;;20.91;100.00;63037.84;5092077;28;20326;-77
2022/05/24 06:14:17;;;;;;;8.93;3.67;;;;;;;21.01;100.00;63048.69;5091822;28;20211;-72
2022/05/24 06:16:44;;;;;;;7.10;3.77;;;;;;;21.21;100.00;63074.44;5091414;28;20204;-73
2022/05/24 06:19:11;;;;;;;12.20;3.70;;;;;;;21.13;100.00;63060.59;5091807;28;20252;-72
2022/05/24 06:21:38;;;;;;;8.73;3.70;;;;;;;21.31;100.00;63080.59;5094279;28;20215;-74
2022/05/24 06:24:08;;;;;;;6.37;4.00;;;;;;;21.27;100.00;63078.88;5096155;28;20286;-74
2022/05/24 06:26:39;;;;;;;10.03;3.13;;;;;;;21.29;100.00;63083.09;5096248;28;20303;-73
2022/05/24 06:29:07;;;;;;;11.77;3.77;;;;;;;21.66;100.00;63115.38;5095911;28;20257;-76
2022/05/24 06:31:35;;;;;;;6.80;3.37;;;;;;;21.84;100.00;63137.47;5095761;28;20227;-73
2022/05/24 06:34:05;;;;;;;7.90;3.50;;;;;;;21.78;100.00;63130.94;5095823;28;20211;-75
2022/05/24 06:36:32;;;;;;;8.80;3.40;;;;;;;22.18;100.00;63179.47;5095898;28;20230;-76
2022/05/24 06:38:59;;;;;;;10.97;4.23;;;;;;;22.46;100.00;63204.63;5095785;28;20199;-72
2022/05/24 06:41:47;;;;;;;13.47;3.80;;;;;;;22.58;100.00;63217.09;5095048;28;20716;-74
2022/05/24 06:44:14;;;;;;;7.93;3.70;;;;;;;22.43;100.00;63201.38;5095552;28;20607;-73
2022/05/24 06:46:41;;;;;;;9.40;4.03;;;;;;;22.53;100.00;63214.25;5095291;28;20199;-75
2022/05/24 06:49:11;;;;;;;12.60;4.40;;;;;;;22.98;100.00;63259.91;5095297;28;20200;-72
2022/05/24 06:51:38;;;;;;;11.70;4.60;;;;;;;22.83;100.00;63243.66;5095411;28;20314;-73
2022/05/24 06:54:05;;;;;;;10.13;4.63;;;;;;;22.84;100.00;63249.94;5095166;28;20638;-74
2022/05/24 06:56:33;;;;;;;12.30;4.80;;;;;;;23.03;100.00;63265.31;5095431;28;20195;-76
2022/05/24 07:04:30;;;;;;;8.97;4.33;;;;;;;22.87;100.00;63248.53;5095377;28;20336;-75
2022/05/24 07:06:58;;;;;;;7.63;4.00;;;;;;;23.02;100.00;63264.78;5094832;28;20327;-75
2022/05/24 07:09:29;;;;;;;9.30;3.87;;;;;;;23.08;100.00;63270.75;5094857;28;20204;-72
2022/05/24 07:11:59;;;;;;;7.80;4.10;;;;;;;23.25;100.00;63294.38;5094249;28;20810;-72
2022/05/24 07:14:28;;;;;;;8.63;3.60;;;;;;;23.32;100.00;63296.78;5094984;28;20196;-73
2022/05/24 07:16:55;;;;;;;12.23;4.10;;;;;;;23.40;100.00;63305.47;5094889;28;20192;-76
2022/05/24 07:19:23;;;;;;;9.77;3.80;;;;;;;22.92;100.00;63253.94;5094268;28;20200;-73
2022/05/24 07:21:50;;;;;;;9.77;4.47;;;;;;;23.10;100.00;63276.06;5094766;28;20684;-73
2022/05/24 07:24:19;;;;;;;6.57;4.07;;;;;;;23.35;100.00;63297.44;5094683;28;20662;-77
2022/05/24 07:26:46;;;;;;;6.53;4.00;;;;;;;23.26;100.00;63292.88;5094912;28;20200;-73
2022/05/24 07:29:13;;;;;;;7.67;3.90;;;;;;;23.47;100.00;63313.06;5094415;28;20252;-74
2022/05/24 07:31:43;;;;;;;11.33;3.97;;;;;;;23.72;100.00;63339.63;5094375;28;20606;-73
2022/05/24 07:34:11;;;;;;;9.23;3.80;;;;;;;23.80;100.00;63348.31;5094591;28;20809;-73
2022/05/24 07:36:38;;;;;;;8.37;3.73;;;;;;;23.44;100.00;63309.81;5094682;28;20265;-74
2022/05/24 07:39:05;;;;;;;9.30;4.33;;;;;;;23.66;100.00;63328.47;5094376;28;20200;-74
2022/05/24 07:47:01;;;;;;;12.70;3.83;;;;;;;23.52;100.00;63319.00;5094361;28;20261;-73
2022/05/24 07:49:31;;;;;;;6.93;3.90;;;;;;;24.18;100.00;63384.88;5094301;28;20251;-74
2022/05/24 07:51:57;;;;;;;9.03;3.67;;;;;;;24.55;100.00;63429.16;5094132;28;20272;-73
2022/05/24 07:54:24;;;;;;;9.47;3.80;;;;;;;24.67;100.00;63436.97;5094155;28;20332;-75
2022/05/24 07:56:52;;;;;;;7.80;3.90;;;;;;;24.54;100.00;63428.06;5094243;28;20253;-74
2022/05/24 07:59:20;;;;;;;6.87;4.03;;;;;;;24.28;100.00;63393.13;5093943;28;20224;-73
2022/05/24 08:01:46;;;;;;;11.73;3.87;;;;;;;24.86;100.00;63460.78;5093500;28;20205;-73
2022/05/24 08:04:16;;;;;;;14.80;4.60;;;;;;;24.93;100.00;63470.44;5095482;28;20647;-72
2022/05/24 08:06:43;;;;;;;12.73;4.83;;;;;;;24.40;100.00;63418.09;5096531;28;20277;-74
2022/05/24 08:09:10;;;;;;;9.53;4.50;;;;;;;24.40;100.00;63415.47;5093812;28;20666;-72
2022/05/24 08:11:37;;;;;;;10.00;4.37;;;;;;;24.35;100.00;63407.47;5093331;28;20204;-73
2022/05/24 08:14:06;;;;;;;6.83;4.20;;;;;;;24.47;100.00;63423.09;5093680;28;20222;-74
2022/05/24 08:16:33;;;;;;;8.63;4.10;;;;;;;24.58;100.00;63432.41;5093681;28;20199;-72
2022/05/24 08:19:02;;;;;;;6.93;4.67;;;;;;;24.60;100.00;63429.91;5093754;28;20200;-75
2022/05/24 08:21:31;;;;;;;9.43;4.40;;;;;;;24.13;100.00;63382.06;5093484;28;20200;-73
2022/05/24 08:23:58;;;;;;;11.43;4.33;;;;;;;24.14;100.00;63383.16;5093276;28;20193;-75
2022/05/24 08:26:25;;;;;;;9.30;4.03;;;;;;;24.01;100.00;63366.41;5093195;28;20712;-73
2022/05/24 08:28:52;;;;;;;6.47;4.80;;;;;;;23.90;100.00;63354.50;5093222;28;20580;-74
2022/05/24 08:31:21;;;;;;;8.33;4.90;;;;;;;24.18;100.00;63390.09;5093429;28;20235;-75
2022/05/24 08:33:50;;;;;;;10.67;4.43;;;;;;;24.42;100.00;63420.25;5093079;28;20231;-76
2022/05/24 08:36:17;;;;;;;11.10;4.97;;;;;;;24.26;100.00;63398.22;5093183;28;20210;-75
2022/05/24 08:38:46;;;;;;;10.47;4.50;;;;;;;24.56;100.00;63425.03;5093024;28;20615;-73
2022/05/24 08:41:21;;;;;;;8.30;4.60;;;;;;;24.45;100.00;63418.31;5093356;28;20223;-72
2022/05/24 08:49:33;;;;;;;13.20;5.40;;;;;;;24.64;100.00;63434.25;5093381;28;20685;-72
2022/05/24 08:52:02;;;;;;;8.83;4.70;;;;;;;24.40;100.00;63418.63;5092949;28;20268;-72
2022/05/24 08:54:38;;;;;;;9.03;4.73;;;;;;;24.74;100.00;63449.81;5092963;28;20260;-73
2022/05/24 08:57:08;;;;;;;6.57;4.37;;;;;;;25.11;100.00;63487.38;5093356;28;20228;-74
2022/05/24 08:59:41;;;;;;;7.47;4.33;;;;;;;24.86;100.00;63462.81;5092879;28;20197;-72
2022/05/24 09:02:08;;;;;;;5.63;4.60;;;;;;;25.66;100.00;63549.75;5092539;28;20208;-73
2022/05/24 09:04:37;;;;;;;11.50;4.60;;;;;;;25.17;100.00;63497.03;5092593;28;20200;-73
2022/05/24 09:07:09;;;;;;;5.17;4.20;;;;;;;26.06;100.00;63595.25;5092530;28;20257;-74
2022/05/24 09:09:58;;;;;;;6.93;4.10;;;;;;;26.42;100.00;63631.28;5092804;28;20199;-73
2022/05/24 09:12:35;;;;;;;13.03;4.43;;;;;;;26.20;100.00;63607.38;5092331;28;20702;-72
2022/05/24 09:18:34;;;;;;;5.97;4.73;;;;;;;26.81;100.00;63678.94;5092309;28;20197;-74
2022/05/24 09:21:01;;;;;;;8.83;4.30;;;;;;;26.04;100.00;63590.47;5093125;28;20199;-72
2022/05/24 09:23:34;;;;;;;5.37;4.30;;;;;;;26.98;100.00;63692.19;5094085;28;20739;-73
2022/05/24 09:26:06;;;;;;;10.07;4.67;;;;;;;27.36;100.00;63730.94;5093189;28;20211;-75
2022/05/24 09:28:49;;;;;;;13.43;5.17;;;;;;;26.99;100.00;63693.28;5092199;28;20667;-75
2022/05/24 09:31:25;;;;;;;7.37;4.57;;;;;;;26.87;100.00;63682.84;5092152;28;20201;-74
2022/05/24 09:33:57;;;;;;;11.37;5.23;;;;;;;27.38;100.00;63732.56;5092290;28;20235;-73
2022/05/24 09:36:36;;;;;;;8.73;5.43;;;;;;;27.71;100.00;63771.09;5092210;28;20308;-73
2022/05/24 09:39:06;;;;;;;9.30;4.93;;;;;;;27.66;100.00;63765.09;5092567;28;20260;-75
2022/05/24 09:41:35;;;;;;;9.43;5.10;;;;;;;27.78;100.00;63772.94;5092600;28;20292;-73
2022/05/24 09:44:05;;;;;;;9.87;5.00;;;;;;;27.08;100.00;63697.28;5091980;28;20208;-73
2022/05/24 09:46:36;;;;;;;11.17;5.10;;;;;;;26.49;100.00;63636.25;5092488;28;20195;-75
2022/05/24 09:49:19;;;;;;;13.00;5.80;;;;;;;27.62;100.00;63755.50;5091917;28;20216;-75
2022/05/24 09:51:49;;;;;;;7.60;5.07;;;;;;;27.59;100.00;63755.94;5091976;28;20203;-75
2022/05/24 09:54:20;;;;;;;9.97;5.00;;;;;;;27.89;100.00;63788.06;5091668;28;20595;-73
2022/05/24 09:57:05;;;;;;;12.10;4.47;;;;;;;27.58;100.00;63757.50;5091489;28;20286;-74
2022/05/24 09:59:33;;;;;;;8.10;4.93;;;;;;;27.46;100.00;63744.44;5092076;28;20260;-75
2022/05/24 10:02:02;;;;;;;10.30;5.37;;;;;;;27.19;100.00;63715.03;5091566;28;20252;-73
2022/05/24 10:04:36;;;;;;;9.17;6.80;;;;;;;27.06;100.00;63700.91;5091447;28;20295;-73
2022/05/24 10:07:08;;;;;;;8.53;5.63;;;;;;;27.33;100.00;63730.28;5093361;28;20200;-75
2022/05/24 10:09:50;;;;;;;9.13;5.20;;;;;;;27.50;100.00;63748.78;5095274;28;20230;-74
2022/05/24 10:12:31;;;;;;;8.83;5.50;;;;;;;27.97;100.00;63798.88;5091501;28;20352;-75
2022/05/24 10:15:08;;;;;;;6.93;5.07;;;;;;;27.96;100.00;63797.78;5091768;28;20199;-74
2022/05/24 10:17:49;;;;;;;9.57;5.70;;;;;;;27.76;100.00;63773.38;5091676;28;20747;-75
2022/05/24 10:20:24;;;;;;;7.90;5.43;;;;;;;26.66;100.00;63652.16;5092061;28;20225;-74
2022/05/24 10:23:03;;;;;;;12.30;6.00;;;;;;;26.87;100.00;63677.59;5091715;28;20210;-73
2022/05/24 10:25:39;;;;;;;8.33;5.70;;;;;;;27.05;100.00;63699.78;5091508;28;20203;-75
2022/05/24 10:28:33;;;;;;;12.27;6.23;;;;;;;28.00;100.00;63802.13;5091833;28;20195;-74
2022/05/24 10:31:07;;;;;;;6.90;5.23;;;;;;;28.14;100.00;63814.75;5091522;28;20253;-74
2022/05/24 10:39:45;;;;;;;6.07;4.83;;;;;;;28.83;100.00;63889.94;5091565;28;20195;-76
2022/05/24 10:42:35;;;;;;;13.60;5.77;;;;;;;29.11;100.00;63920.44;5091553;28;20584;-73
2022/05/24 10:45:08;;;;;;;14.87;5.97;;;;;;;28.84;100.00;63891.00;5091698;28;20200;-74
2022/05/24 10:47:41;;;;;;;11.27;5.83;;;;;;;28.86;100.00;63895.81;5091245;28;20192;-73
2022/05/24 10:50:11;;;;;;;12.73;6.07;;;;;;;28.83;100.00;63889.38;5091400;28;20593;-74
2022/05/24 10:52:47;;;;;;;14.43;5.87;;;;;;;29.44;100.00;63953.22;5091169;28;20233;-74
2022/05/24 10:55:24;;;;;;;10.97;5.83;;;;;;;30.26;100.00;64047.38;5091524;28;20204;-73
2022/05/24 10:57:55;;;;;;;14.37;6.40;;;;;;;29.75;100.00;63997.00;5091384;28;20202;-76
2022/05/24 11:00:32;;;;;;;11.93;5.37;;;;;;;29.85;100.00;64000.03;5091226;28;20200;-73
2022/05/24 11:03:09;;;;;;;50.13;8.20;;;;;;;29.96;100.00;64017.28;5091324;28;20265;-75
2022/05/24 11:05:39;;;;;;;11.53;6.13;;;;;;;29.60;100.00;63975.38;5091577;28;20200;-76
2022/05/24 11:08:23;;;;;;;11.57;6.30;;;;;;;28.56;100.00;63862.56;5094545;28;20192;-73
2022/05/24 11:10:53;;;;;;;10.13;6.00;;;;;;;29.40;100.00;63953.59;5095011;28;20200;-73
2022/05/24 11:13:27;;;;;;;14.00;6.10;;;;;;;29.72;100.00;63989.03;5094768;28;20227;-73
2022/05/24 11:16:03;;;;;;;9.80;6.13;;;;;;;30.15;100.00;64035.38;5095229;28;20258;-75
2022/05/24 11:18:32;;;;;;;10.83;5.90;;;;;;;29.12;100.00;63924.13;5094712;28;20239;-75
2022/05/24 11:21:09;;;;;;;12.37;5.63;;;;;;;30.46;100.00;64069.22;5095087;28;20224;-74
2022/05/24 11:23:42;;;;;;;8.87;5.97;;;;;;;30.08;100.00;64033.00;5094708;28;20201;-74
2022/05/24 11:26:14;;;;;;;13.60;6.70;;;;;;;30.42;100.00;64067.47;5094715;28;20201;-74
2022/05/24 11:28:49;;;;;;;11.43;6.33;;;;;;;30.18;100.00;64038.66;5094781;28;20255;-75
2022/05/24 11:31:37;;;;;;;13.70;6.10;;;;;;;30.21;100.00;64041.91;5094438;28;20207;-77
2022/05/24 11:34:18;;;;;;;13.43;5.90;;;;;;;30.06;100.00;64025.56;5094349;28;20238;-74
2022/05/24 11:36:49;;;;;;;8.57;5.90;;;;;;;30.67;100.00;64089.47;5094843;28;20293;-73
2022/05/24 11:39:25;;;;;;;10.63;5.67;;;;;;;30.62;100.00;64086.66;5094499;28;20285;-71
2022/05/24 11:42:22;;;;;;;22.77;7.53;;;;;;;30.28;100.00;64049.56;5094313;28;20231;-73
2022/05/24 11:44:50;;;;;;;15.33;6.50;;;;;;;30.22;100.00;64042.47;5094099;28;20198;-74
2022/05/24 11:47:51;;;;;;;15.33;6.40;;;;;;;30.39;100.00;64058.94;5094080;28;20189;-74
2022/05/24 11:50:36;;;;;;;11.67;6.10;;;;;;;30.75;100.00;64095.56;5087197;28;20201;-76
2022/05/24 11:53:07;;;;;;;14.67;6.40;;;;;;;30.26;100.00;64047.38;5093190;28;20220;-73
2022/05/24 11:55:47;;;;;;;10.07;6.07;;;;;;;30.69;100.00;64094.28;5094431;28;20259;-74
2022/05/24 11:58:52;;;;;;;13.07;6.63;;;;;;;30.86;100.00;64112.31;5094225;28;20206;-73
2022/05/24 12:01:48;;;;;;;15.00;7.30;;;;;;;30.42;100.00;64062.22;5076141;28;20661;-76
2022/05/24 12:10:31;;;;;;;11.80;6.33;;;;;;;30.96;100.00;64117.97;5098731;28;20287;-72
2022/05/24 12:13:31;;;;;;;17.40;6.67;;;;;;;31.77;100.00;64211.13;5097133;28;20237;-76
2022/05/24 12:16:00;;;;;;;12.07;6.33;;;;;;;31.84;100.00;64218.75;5092730;28;20203;-76
2022/05/24 12:18:45;;;;;;;9.83;5.67;;;;;;;30.62;100.00;64081.41;5092846;28;20204;-74
2022/05/24 12:21:50;;;;;;;9.97;6.23;;;;;;;31.51;100.00;64178.00;5094040;28;20200;-74
2022/05/24 12:24:49;;;;;;;13.47;7.23;;;;;;;31.99;100.00;64229.91;5078101;28;20203;-74
2022/05/24 12:27:22;;;;;;;10.67;6.23;;;;;;;32.39;100.00;64276.22;5093868;28;20210;-76
2022/05/24 12:29:53;;;;;;;11.47;6.17;;;;;;;32.50;100.00;64287.72;5093653;28;20196;-73
2022/05/24 12:32:23;;;;;;;8.70;6.27;;;;;;;31.94;100.00;64229.16;5093546;28;20668;-74